sensor_id;sensor_type;location;lat;lon;timestamp;P1;durP1;ratioP1;P2;durP2;ratioP2
1328;SDS011;658;48.820;9.354;2022-08-01T00:00:42;2.60;;;2.40;;
1328;SDS011;658;48.820;9.354;2022-08-01T00:04:43;2.30;;;2.10;;
1328;SDS011;658;48.820;9.354;2022-08-01T00:08:43;1.87;;;1.73;;
1328;SDS011;658;48.820;9.354;2022-08-01T00:12:44;2.60;;;2.40;;
1328;SDS011;658;48.820;9.354;2022-08-01T00:16:45;2.33;;;2.20;;
1328;SDS011;658;48.820;9.354;2022-08-01T00:20:46;2.70;;;2.50;;
1328;SDS011;658;48.820;9.354;2022-08-01T00:24:46;3.40;;;2.60;;
1328;SDS011;658;48.820;9.354;2022-08-01T00:28:47;2.50;;;2.20;;
1328;SDS011;658;48.820;9.354;2022-08-01T00:32:47;2.60;;;2.40;;
1328;SDS011;658;48.820;9.354;2022-08-01T00:36:48;2.57;;;2.43;;
1328;SDS011;658;48.820;9.354;2022-08-01T00:40:49;2.93;;;2.73;;
1328;SDS011;658;48.820;9.354;2022-08-01T00:44:49;2.73;;;2.53;;
1328;SDS011;658;48.820;9.354;2022-08-01T00:48:50;2.53;;;2.33;;
1328;SDS011;658;48.820;9.354;2022-08-01T00:52:51;2.30;;;2.20;;
1328;SDS011;658;48.820;9.354;2022-08-01T00:56:52;2.53;;;2.33;;
1328;SDS011;658;48.820;9.354;2022-08-01T01:00:54;2.50;;;2.30;;
1328;SDS011;658;48.820;9.354;2022-08-01T01:04:54;3.03;;;2.80;;
1328;SDS011;658;48.820;9.354;2022-08-01T01:13:23;2.47;;;2.37;;
1328;SDS011;658;48.820;9.354;2022-08-01T01:17:32;3.10;;;2.90;;
1328;SDS011;658;48.820;9.354;2022-08-01T01:30:15;3.10;;;2.90;;
1328;SDS011;658;48.820;9.354;2022-08-01T01:34:17;2.97;;;2.70;;
1328;SDS011;658;48.820;9.354;2022-08-01T01:38:21;2.97;;;2.77;;
1328;SDS011;658;48.820;9.354;2022-08-01T01:42:24;2.30;;;2.20;;
1328;SDS011;658;48.820;9.354;2022-08-01T01:46:26;2.90;;;2.70;;
1328;SDS011;658;48.820;9.354;2022-08-01T01:50:31;2.53;;;2.43;;
1328;SDS011;658;48.820;9.354;2022-08-01T01:54:34;3.07;;;2.87;;
1328;SDS011;658;48.820;9.354;2022-08-01T01:58:39;2.60;;;2.40;;
1328;SDS011;658;48.820;9.354;2022-08-01T02:02:40;3.27;;;3.07;;
1328;SDS011;658;48.820;9.354;2022-08-01T02:06:43;2.60;;;2.37;;
1328;SDS011;658;48.820;9.354;2022-08-01T02:10:46;2.83;;;2.63;;
1328;SDS011;658;48.820;9.354;2022-08-01T02:15:06;2.57;;;2.37;;
1328;SDS011;658;48.820;9.354;2022-08-01T02:19:09;2.80;;;2.60;;
1328;SDS011;658;48.820;9.354;2022-08-01T02:23:11;3.00;;;2.70;;
1328;SDS011;658;48.820;9.354;2022-08-01T02:27:14;2.63;;;2.53;;
1328;SDS011;658;48.820;9.354;2022-08-01T02:31:20;2.90;;;2.80;;
1328;SDS011;658;48.820;9.354;2022-08-01T02:35:29;2.77;;;2.57;;
1328;SDS011;658;48.820;9.354;2022-08-01T02:39:32;2.93;;;2.73;;
1328;SDS011;658;48.820;9.354;2022-08-01T02:43:40;2.50;;;2.40;;
1328;SDS011;658;48.820;9.354;2022-08-01T02:47:47;2.80;;;2.70;;
1328;SDS011;658;48.820;9.354;2022-08-01T02:51:49;2.90;;;2.70;;
1328;SDS011;658;48.820;9.354;2022-08-01T02:55:52;2.60;;;2.40;;
1328;SDS011;658;48.820;9.354;2022-08-01T02:59:54;2.90;;;2.70;;
1328;SDS011;658;48.820;9.354;2022-08-01T03:03:57;2.73;;;2.60;;
1328;SDS011;658;48.820;9.354;2022-08-01T03:07:58;2.93;;;2.73;;
1328;SDS011;658;48.820;9.354;2022-08-01T03:12:01;2.63;;;2.43;;
1328;SDS011;658;48.820;9.354;2022-08-01T03:16:04;2.73;;;2.53;;
1328;SDS011;658;48.820;9.354;2022-08-01T03:20:05;3.27;;;2.70;;
1328;SDS011;658;48.820;9.354;2022-08-01T03:24:08;2.67;;;2.47;;
1328;SDS011;658;48.820;9.354;2022-08-01T03:28:12;2.90;;;2.70;;
1328;SDS011;658;48.820;9.354;2022-08-01T03:32:14;2.93;;;2.60;;
1328;SDS011;658;48.820;9.354;2022-08-01T03:36:16;2.70;;;2.50;;
1328;SDS011;658;48.820;9.354;2022-08-01T03:40:24;3.00;;;2.80;;
1328;SDS011;658;48.820;9.354;2022-08-01T03:44:31;2.70;;;2.50;;
1328;SDS011;658;48.820;9.354;2022-08-01T03:48:37;3.03;;;2.83;;
1328;SDS011;658;48.820;9.354;2022-08-01T03:52:41;2.87;;;2.77;;
1328;SDS011;658;48.820;9.354;2022-08-01T03:56:45;3.20;;;3.00;;
1328;SDS011;658;48.820;9.354;2022-08-01T04:00:47;3.10;;;2.90;;
1328;SDS011;658;48.820;9.354;2022-08-01T04:04:48;2.80;;;2.70;;
1328;SDS011;658;48.820;9.354;2022-08-01T04:08:49;3.07;;;2.87;;
1328;SDS011;658;48.820;9.354;2022-08-01T04:12:56;2.83;;;2.63;;
1328;SDS011;658;48.820;9.354;2022-08-01T04:16:56;3.10;;;2.90;;
1328;SDS011;658;48.820;9.354;2022-08-01T04:20:57;3.13;;;2.93;;
1328;SDS011;658;48.820;9.354;2022-08-01T04:24:57;3.27;;;2.97;;
1328;SDS011;658;48.820;9.354;2022-08-01T04:29:02;3.10;;;2.90;;
1328;SDS011;658;48.820;9.354;2022-08-01T04:33:05;2.90;;;2.80;;
1328;SDS011;658;48.820;9.354;2022-08-01T04:37:07;2.67;;;2.47;;
1328;SDS011;658;48.820;9.354;2022-08-01T04:41:11;2.97;;;2.70;;
1328;SDS011;658;48.820;9.354;2022-08-01T04:45:13;2.33;;;2.23;;
1328;SDS011;658;48.820;9.354;2022-08-01T04:49:14;2.80;;;2.60;;
1328;SDS011;658;48.820;9.354;2022-08-01T04:53:16;3.00;;;2.80;;
1328;SDS011;658;48.820;9.354;2022-08-01T04:57:21;3.90;;;3.40;;
1328;SDS011;658;48.820;9.354;2022-08-01T05:01:22;3.60;;;3.30;;
1328;SDS011;658;48.820;9.354;2022-08-01T05:05:23;2.77;;;2.67;;
1328;SDS011;658;48.820;9.354;2022-08-01T05:09:26;3.47;;;3.17;;
1328;SDS011;658;48.820;9.354;2022-08-01T05:13:26;3.50;;;3.20;;
1328;SDS011;658;48.820;9.354;2022-08-01T05:17:27;3.60;;;3.30;;
1328;SDS011;658;48.820;9.354;2022-08-01T05:21:27;3.00;;;2.80;;
1328;SDS011;658;48.820;9.354;2022-08-01T05:25:28;3.10;;;2.90;;
1328;SDS011;658;48.820;9.354;2022-08-01T05:29:29;3.90;;;3.20;;
1328;SDS011;658;48.820;9.354;2022-08-01T05:33:30;3.70;;;3.50;;
1328;SDS011;658;48.820;9.354;2022-08-01T05:37:30;3.53;;;3.33;;
1328;SDS011;658;48.820;9.354;2022-08-01T05:41:31;3.70;;;3.50;;
1328;SDS011;658;48.820;9.354;2022-08-01T05:45:32;4.07;;;3.67;;
1328;SDS011;658;48.820;9.354;2022-08-01T05:49:32;3.77;;;3.23;;
1328;SDS011;658;48.820;9.354;2022-08-01T05:53:33;3.97;;;3.67;;
1328;SDS011;658;48.820;9.354;2022-08-01T05:57:34;3.73;;;3.43;;
1328;SDS011;658;48.820;9.354;2022-08-01T06:01:35;4.37;;;4.07;;
1328;SDS011;658;48.820;9.354;2022-08-01T06:05:35;4.07;;;3.63;;
1328;SDS011;658;48.820;9.354;2022-08-01T06:09:36;4.83;;;4.00;;
1328;SDS011;658;48.820;9.354;2022-08-01T06:13:37;3.77;;;3.57;;
1328;SDS011;658;48.820;9.354;2022-08-01T06:17:37;3.87;;;3.57;;
1328;SDS011;658;48.820;9.354;2022-08-01T06:21:39;3.33;;;3.13;;
1328;SDS011;658;48.820;9.354;2022-08-01T06:25:40;3.30;;;3.10;;
1328;SDS011;658;48.820;9.354;2022-08-01T06:29:40;3.30;;;3.07;;
1328;SDS011;658;48.820;9.354;2022-08-01T06:33:43;3.83;;;3.43;;
1328;SDS011;658;48.820;9.354;2022-08-01T06:37:43;4.17;;;3.47;;
1328;SDS011;658;48.820;9.354;2022-08-01T06:41:47;3.30;;;3.10;;
1328;SDS011;658;48.820;9.354;2022-08-01T06:45:48;3.13;;;2.83;;
1328;SDS011;658;48.820;9.354;2022-08-01T06:49:48;3.40;;;3.10;;
1328;SDS011;658;48.820;9.354;2022-08-01T06:53:49;2.97;;;2.77;;
1328;SDS011;658;48.820;9.354;2022-08-01T06:57:50;3.50;;;3.20;;
1328;SDS011;658;48.820;9.354;2022-08-01T07:01:51;3.47;;;3.17;;
1328;SDS011;658;48.820;9.354;2022-08-01T07:05:52;3.00;;;2.77;;
1328;SDS011;658;48.820;9.354;2022-08-01T07:09:53;3.30;;;3.00;;
1328;SDS011;658;48.820;9.354;2022-08-01T07:13:53;2.40;;;2.20;;
1328;SDS011;658;48.820;9.354;2022-08-01T07:17:54;2.43;;;2.33;;
1328;SDS011;658;48.820;9.354;2022-08-01T07:21:54;2.70;;;2.50;;
1328;SDS011;658;48.820;9.354;2022-08-01T07:25:55;2.90;;;2.33;;
1328;SDS011;658;48.820;9.354;2022-08-01T07:29:56;2.10;;;2.00;;
1328;SDS011;658;48.820;9.354;2022-08-01T07:33:56;2.23;;;2.03;;
1328;SDS011;658;48.820;9.354;2022-08-01T07:37:57;2.23;;;2.03;;
1328;SDS011;658;48.820;9.354;2022-08-01T07:41:58;2.23;;;2.10;;
1328;SDS011;658;48.820;9.354;2022-08-01T07:45:58;2.20;;;2.10;;
1328;SDS011;658;48.820;9.354;2022-08-01T07:49:59;1.90;;;1.80;;
1328;SDS011;658;48.820;9.354;2022-08-01T07:54:01;2.00;;;1.90;;
1328;SDS011;658;48.820;9.354;2022-08-01T07:58:02;2.13;;;2.03;;
1328;SDS011;658;48.820;9.354;2022-08-01T08:02:02;2.20;;;2.00;;
1328;SDS011;658;48.820;9.354;2022-08-01T08:06:03;1.87;;;1.60;;
1328;SDS011;658;48.820;9.354;2022-08-01T08:10:04;1.80;;;1.70;;
1328;SDS011;658;48.820;9.354;2022-08-01T08:14:05;1.87;;;1.77;;
1328;SDS011;658;48.820;9.354;2022-08-01T08:18:06;2.83;;;2.00;;
1328;SDS011;658;48.820;9.354;2022-08-01T08:22:07;2.13;;;2.03;;
1328;SDS011;658;48.820;9.354;2022-08-01T08:26:09;1.70;;;1.60;;
1328;SDS011;658;48.820;9.354;2022-08-01T08:30:10;1.60;;;1.50;;
1328;SDS011;658;48.820;9.354;2022-08-01T08:34:12;2.00;;;1.90;;
1328;SDS011;658;48.820;9.354;2022-08-01T08:38:12;2.00;;;1.90;;
1328;SDS011;658;48.820;9.354;2022-08-01T08:42:13;2.70;;;2.23;;
1328;SDS011;658;48.820;9.354;2022-08-01T08:46:14;2.40;;;2.03;;
1328;SDS011;658;48.820;9.354;2022-08-01T08:50:15;2.43;;;1.60;;
1328;SDS011;658;48.820;9.354;2022-08-01T08:54:16;2.00;;;1.90;;
1328;SDS011;658;48.820;9.354;2022-08-01T08:58:19;2.73;;;1.90;;
1328;SDS011;658;48.820;9.354;2022-08-01T09:02:22;2.47;;;2.27;;
1328;SDS011;658;48.820;9.354;2022-08-01T09:06:23;1.80;;;1.70;;
1328;SDS011;658;48.820;9.354;2022-08-01T09:10:25;2.63;;;2.40;;
1328;SDS011;658;48.820;9.354;2022-08-01T09:14:26;1.90;;;1.80;;
1328;SDS011;658;48.820;9.354;2022-08-01T09:18:31;3.60;;;2.33;;
1328;SDS011;658;48.820;9.354;2022-08-01T09:22:34;2.60;;;2.30;;
1328;SDS011;658;48.820;9.354;2022-08-01T09:26:35;2.27;;;2.07;;
1328;SDS011;658;48.820;9.354;2022-08-01T09:30:36;3.20;;;2.60;;
1328;SDS011;658;48.820;9.354;2022-08-01T09:34:38;2.07;;;1.90;;
1328;SDS011;658;48.820;9.354;2022-08-01T09:38:39;2.00;;;1.90;;
1328;SDS011;658;48.820;9.354;2022-08-01T09:42:40;2.20;;;2.00;;
1328;SDS011;658;48.820;9.354;2022-08-01T09:46:51;2.87;;;2.50;;
1328;SDS011;658;48.820;9.354;2022-08-01T09:50:54;2.60;;;2.40;;
1328;SDS011;658;48.820;9.354;2022-08-01T09:55:00;2.50;;;2.30;;
1328;SDS011;658;48.820;9.354;2022-08-01T09:59:03;2.60;;;2.40;;
1328;SDS011;658;48.820;9.354;2022-08-01T10:03:25;2.57;;;2.47;;
1328;SDS011;658;48.820;9.354;2022-08-01T10:07:27;2.83;;;2.63;;
1328;SDS011;658;48.820;9.354;2022-08-01T10:11:28;5.60;;;2.90;;
1328;SDS011;658;48.820;9.354;2022-08-01T10:15:29;3.20;;;3.00;;
1328;SDS011;658;48.820;9.354;2022-08-01T10:19:31;2.90;;;2.70;;
1328;SDS011;658;48.820;9.354;2022-08-01T10:23:33;3.00;;;2.80;;
1328;SDS011;658;48.820;9.354;2022-08-01T10:27:35;3.03;;;2.77;;
1328;SDS011;658;48.820;9.354;2022-08-01T10:31:38;3.40;;;3.10;;
1328;SDS011;658;48.820;9.354;2022-08-01T10:35:39;3.57;;;3.27;;
1328;SDS011;658;48.820;9.354;2022-08-01T10:39:39;4.37;;;4.00;;
1328;SDS011;658;48.820;9.354;2022-08-01T10:43:40;4.07;;;3.77;;
1328;SDS011;658;48.820;9.354;2022-08-01T10:47:46;3.60;;;3.40;;
1328;SDS011;658;48.820;9.354;2022-08-01T10:51:53;6.30;;;4.03;;
1328;SDS011;658;48.820;9.354;2022-08-01T10:56:02;4.20;;;3.90;;
1328;SDS011;658;48.820;9.354;2022-08-01T11:00:03;4.37;;;4.07;;
1328;SDS011;658;48.820;9.354;2022-08-01T11:04:13;4.80;;;4.40;;
1328;SDS011;658;48.820;9.354;2022-08-01T11:08:22;3.43;;;3.23;;
1328;SDS011;658;48.820;9.354;2022-08-01T11:12:22;3.70;;;3.40;;
1328;SDS011;658;48.820;9.354;2022-08-01T11:16:41;3.43;;;3.23;;
1328;SDS011;658;48.820;9.354;2022-08-01T11:20:43;3.73;;;3.50;;
1328;SDS011;658;48.820;9.354;2022-08-01T11:25:01;3.97;;;3.67;;
1328;SDS011;658;48.820;9.354;2022-08-01T11:29:13;4.40;;;4.10;;
1328;SDS011;658;48.820;9.354;2022-08-01T11:33:15;3.90;;;3.60;;
1328;SDS011;658;48.820;9.354;2022-08-01T11:37:23;4.00;;;3.80;;
1328;SDS011;658;48.820;9.354;2022-08-01T11:41:31;3.90;;;3.63;;
1328;SDS011;658;48.820;9.354;2022-08-01T11:45:49;3.17;;;2.97;;
1328;SDS011;658;48.820;9.354;2022-08-01T11:49:51;4.20;;;3.90;;
1328;SDS011;658;48.820;9.354;2022-08-01T11:53:54;3.77;;;3.47;;
1328;SDS011;658;48.820;9.354;2022-08-01T11:58:05;4.10;;;3.83;;
1328;SDS011;658;48.820;9.354;2022-08-01T12:06:26;3.63;;;3.40;;
1328;SDS011;658;48.820;9.354;2022-08-01T12:10:33;3.50;;;3.20;;
1328;SDS011;658;48.820;9.354;2022-08-01T12:14:37;3.40;;;3.20;;
1328;SDS011;658;48.820;9.354;2022-08-01T12:18:39;3.30;;;3.10;;
1328;SDS011;658;48.820;9.354;2022-08-01T12:22:41;3.70;;;3.40;;
1328;SDS011;658;48.820;9.354;2022-08-01T12:26:42;3.60;;;3.40;;
1328;SDS011;658;48.820;9.354;2022-08-01T12:30:42;3.30;;;3.10;;
1328;SDS011;658;48.820;9.354;2022-08-01T12:34:43;3.10;;;2.90;;
1328;SDS011;658;48.820;9.354;2022-08-01T12:38:44;3.40;;;3.20;;
1328;SDS011;658;48.820;9.354;2022-08-01T12:42:52;3.13;;;2.93;;
1328;SDS011;658;48.820;9.354;2022-08-01T12:46:58;3.40;;;3.20;;
1328;SDS011;658;48.820;9.354;2022-08-01T12:51:00;3.10;;;2.90;;
1328;SDS011;658;48.820;9.354;2022-08-01T12:55:06;3.13;;;2.93;;
1328;SDS011;658;48.820;9.354;2022-08-01T12:59:23;2.73;;;2.53;;
1328;SDS011;658;48.820;9.354;2022-08-01T13:03:28;3.23;;;3.03;;
1328;SDS011;658;48.820;9.354;2022-08-01T13:07:39;2.93;;;2.67;;
1328;SDS011;658;48.820;9.354;2022-08-01T13:11:48;3.20;;;3.00;;
1328;SDS011;658;48.820;9.354;2022-08-01T13:15:49;2.83;;;2.63;;
1328;SDS011;658;48.820;9.354;2022-08-01T13:20:04;3.20;;;2.90;;
1328;SDS011;658;48.820;9.354;2022-08-01T13:24:14;3.17;;;2.97;;
1328;SDS011;658;48.820;9.354;2022-08-01T13:28:19;2.70;;;2.60;;
1328;SDS011;658;48.820;9.354;2022-08-01T13:32:21;3.03;;;2.83;;
1328;SDS011;658;48.820;9.354;2022-08-01T13:36:22;2.60;;;2.50;;
1328;SDS011;658;48.820;9.354;2022-08-01T13:40:27;2.67;;;2.57;;
1328;SDS011;658;48.820;9.354;2022-08-01T13:44:28;2.63;;;2.53;;
1328;SDS011;658;48.820;9.354;2022-08-01T13:48:28;2.60;;;2.40;;
1328;SDS011;658;48.820;9.354;2022-08-01T13:52:30;2.83;;;2.70;;
1328;SDS011;658;48.820;9.354;2022-08-01T13:56:31;3.03;;;2.83;;
1328;SDS011;658;48.820;9.354;2022-08-01T14:00:32;3.10;;;2.80;;
1328;SDS011;658;48.820;9.354;2022-08-01T14:04:33;2.80;;;2.60;;
1328;SDS011;658;48.820;9.354;2022-08-01T14:08:33;2.97;;;2.77;;
1328;SDS011;658;48.820;9.354;2022-08-01T14:12:34;2.67;;;2.57;;
1328;SDS011;658;48.820;9.354;2022-08-01T14:16:34;2.50;;;2.40;;
1328;SDS011;658;48.820;9.354;2022-08-01T14:20:37;2.90;;;2.70;;
1328;SDS011;658;48.820;9.354;2022-08-01T14:24:38;2.67;;;2.47;;
1328;SDS011;658;48.820;9.354;2022-08-01T14:28:39;3.30;;;3.07;;
1328;SDS011;658;48.820;9.354;2022-08-01T14:32:40;2.57;;;2.37;;
1328;SDS011;658;48.820;9.354;2022-08-01T14:36:41;2.73;;;2.40;;
1328;SDS011;658;48.820;9.354;2022-08-01T14:40:41;2.40;;;2.23;;
1328;SDS011;658;48.820;9.354;2022-08-01T14:44:42;2.20;;;2.10;;
1328;SDS011;658;48.820;9.354;2022-08-01T14:48:43;2.50;;;2.30;;
1328;SDS011;658;48.820;9.354;2022-08-01T14:52:43;2.40;;;2.30;;
1328;SDS011;658;48.820;9.354;2022-08-01T14:56:44;2.50;;;2.30;;
1328;SDS011;658;48.820;9.354;2022-08-01T15:00:45;2.53;;;2.27;;
1328;SDS011;658;48.820;9.354;2022-08-01T15:04:45;2.50;;;2.30;;
1328;SDS011;658;48.820;9.354;2022-08-01T15:08:47;2.00;;;1.90;;
1328;SDS011;658;48.820;9.354;2022-08-01T15:12:48;2.50;;;2.30;;
1328;SDS011;658;48.820;9.354;2022-08-01T15:16:48;2.17;;;2.07;;
1328;SDS011;658;48.820;9.354;2022-08-01T15:20:49;2.40;;;2.30;;
1328;SDS011;658;48.820;9.354;2022-08-01T15:24:50;2.53;;;2.30;;
1328;SDS011;658;48.820;9.354;2022-08-01T15:28:52;2.27;;;2.10;;
1328;SDS011;658;48.820;9.354;2022-08-01T15:32:52;2.20;;;2.10;;
1328;SDS011;658;48.820;9.354;2022-08-01T15:36:53;2.83;;;2.23;;
1328;SDS011;658;48.820;9.354;2022-08-01T15:40:54;2.40;;;2.30;;
1328;SDS011;658;48.820;9.354;2022-08-01T15:44:56;2.60;;;2.40;;
1328;SDS011;658;48.820;9.354;2022-08-01T15:48:56;3.23;;;2.57;;
1328;SDS011;658;48.820;9.354;2022-08-01T15:52:57;2.30;;;2.10;;
1328;SDS011;658;48.820;9.354;2022-08-01T15:56:57;2.60;;;2.40;;
1328;SDS011;658;48.820;9.354;2022-08-01T16:00:58;4.47;;;2.60;;
1328;SDS011;658;48.820;9.354;2022-08-01T16:04:59;2.70;;;2.50;;
1328;SDS011;658;48.820;9.354;2022-08-01T16:08:59;2.83;;;2.60;;
1328;SDS011;658;48.820;9.354;2022-08-01T16:13:00;2.27;;;2.13;;
1328;SDS011;658;48.820;9.354;2022-08-01T16:17:01;2.67;;;2.47;;
1328;SDS011;658;48.820;9.354;2022-08-01T16:21:02;2.60;;;2.40;;
1328;SDS011;658;48.820;9.354;2022-08-01T16:25:03;2.73;;;2.40;;
1328;SDS011;658;48.820;9.354;2022-08-01T16:29:04;3.00;;;2.50;;
1328;SDS011;658;48.820;9.354;2022-08-01T16:33:05;2.50;;;2.30;;
1328;SDS011;658;48.820;9.354;2022-08-01T16:37:05;2.50;;;2.30;;
1328;SDS011;658;48.820;9.354;2022-08-01T16:41:06;1.97;;;1.87;;
1328;SDS011;658;48.820;9.354;2022-08-01T16:45:07;2.10;;;2.00;;
1328;SDS011;658;48.820;9.354;2022-08-01T16:49:08;2.13;;;2.03;;
1328;SDS011;658;48.820;9.354;2022-08-01T16:53:09;1.87;;;1.77;;
1328;SDS011;658;48.820;9.354;2022-08-01T16:57:10;1.80;;;1.70;;
1328;SDS011;658;48.820;9.354;2022-08-01T17:01:11;2.00;;;1.90;;
1328;SDS011;658;48.820;9.354;2022-08-01T17:05:12;2.33;;;1.80;;
1328;SDS011;658;48.820;9.354;2022-08-01T17:09:13;2.03;;;1.93;;
1328;SDS011;658;48.820;9.354;2022-08-01T17:13:13;2.00;;;1.90;;
1328;SDS011;658;48.820;9.354;2022-08-01T17:17:14;1.73;;;1.63;;
1328;SDS011;658;48.820;9.354;2022-08-01T17:21:15;1.70;;;1.60;;
1328;SDS011;658;48.820;9.354;2022-08-01T17:25:15;2.30;;;1.90;;
1328;SDS011;658;48.820;9.354;2022-08-01T17:29:16;1.90;;;1.67;;
1328;SDS011;658;48.820;9.354;2022-08-01T17:33:17;1.50;;;1.40;;
1328;SDS011;658;48.820;9.354;2022-08-01T17:37:18;1.73;;;1.63;;
1328;SDS011;658;48.820;9.354;2022-08-01T17:41:18;2.17;;;1.87;;
1328;SDS011;658;48.820;9.354;2022-08-01T17:45:19;1.57;;;1.47;;
1328;SDS011;658;48.820;9.354;2022-08-01T17:49:20;1.70;;;1.60;;
1328;SDS011;658;48.820;9.354;2022-08-01T17:53:21;1.63;;;1.53;;
1328;SDS011;658;48.820;9.354;2022-08-01T17:57:23;1.80;;;1.70;;
1328;SDS011;658;48.820;9.354;2022-08-01T18:01:23;1.80;;;1.70;;
1328;SDS011;658;48.820;9.354;2022-08-01T18:05:24;2.50;;;1.83;;
1328;SDS011;658;48.820;9.354;2022-08-01T18:09:25;2.00;;;1.63;;
1328;SDS011;658;48.820;9.354;2022-08-01T18:13:25;1.60;;;1.50;;
1328;SDS011;658;48.820;9.354;2022-08-01T18:17:26;1.80;;;1.70;;
1328;SDS011;658;48.820;9.354;2022-08-01T18:21:27;1.70;;;1.33;;
1328;SDS011;658;48.820;9.354;2022-08-01T18:25:28;2.10;;;1.40;;
1328;SDS011;658;48.820;9.354;2022-08-01T18:29:29;1.67;;;1.53;;
1328;SDS011;658;48.820;9.354;2022-08-01T18:33:30;1.37;;;1.30;;
1328;SDS011;658;48.820;9.354;2022-08-01T18:37:30;1.70;;;1.60;;
1328;SDS011;658;48.820;9.354;2022-08-01T18:41:32;1.70;;;1.60;;
1328;SDS011;658;48.820;9.354;2022-08-01T18:45:33;1.83;;;1.60;;
1328;SDS011;658;48.820;9.354;2022-08-01T18:49:34;1.77;;;1.67;;
1328;SDS011;658;48.820;9.354;2022-08-01T18:53:35;2.30;;;1.67;;
1328;SDS011;658;48.820;9.354;2022-08-01T18:57:35;1.50;;;1.40;;
1328;SDS011;658;48.820;9.354;2022-08-01T19:01:36;1.27;;;1.27;;
1328;SDS011;658;48.820;9.354;2022-08-01T19:05:38;1.63;;;1.53;;
1328;SDS011;658;48.820;9.354;2022-08-01T19:09:39;1.50;;;1.40;;
1328;SDS011;658;48.820;9.354;2022-08-01T19:13:39;2.43;;;1.60;;
1328;SDS011;658;48.820;9.354;2022-08-01T19:17:40;1.40;;;1.30;;
1328;SDS011;658;48.820;9.354;2022-08-01T19:21:40;1.43;;;1.33;;
1328;SDS011;658;48.820;9.354;2022-08-01T19:25:41;1.40;;;1.33;;
1328;SDS011;658;48.820;9.354;2022-08-01T19:29:42;2.30;;;1.40;;
1328;SDS011;658;48.820;9.354;2022-08-01T19:33:51;2.50;;;1.60;;
1328;SDS011;658;48.820;9.354;2022-08-01T19:37:53;1.67;;;1.57;;
1328;SDS011;658;48.820;9.354;2022-08-01T19:41:57;1.63;;;1.53;;
1328;SDS011;658;48.820;9.354;2022-08-01T19:45:58;1.53;;;1.40;;
1328;SDS011;658;48.820;9.354;2022-08-01T19:49:59;2.13;;;1.30;;
1328;SDS011;658;48.820;9.354;2022-08-01T19:54:03;1.93;;;1.73;;
1328;SDS011;658;48.820;9.354;2022-08-01T19:58:09;1.60;;;1.50;;
1328;SDS011;658;48.820;9.354;2022-08-01T20:02:13;1.73;;;1.43;;
1328;SDS011;658;48.820;9.354;2022-08-01T20:06:19;1.67;;;1.50;;
1328;SDS011;658;48.820;9.354;2022-08-01T20:10:20;1.93;;;1.57;;
1328;SDS011;658;48.820;9.354;2022-08-01T20:14:22;1.83;;;1.73;;
1328;SDS011;658;48.820;9.354;2022-08-01T20:18:24;1.60;;;1.50;;
1328;SDS011;658;48.820;9.354;2022-08-01T20:22:25;1.90;;;1.63;;
1328;SDS011;658;48.820;9.354;2022-08-01T20:26:31;2.17;;;1.63;;
1328;SDS011;658;48.820;9.354;2022-08-01T20:30:34;1.93;;;1.70;;
1328;SDS011;658;48.820;9.354;2022-08-01T20:34:35;1.93;;;1.83;;
1328;SDS011;658;48.820;9.354;2022-08-01T20:38:37;2.10;;;2.00;;
1328;SDS011;658;48.820;9.354;2022-08-01T20:42:40;1.77;;;1.67;;
1328;SDS011;658;48.820;9.354;2022-08-01T20:46:42;2.00;;;1.80;;
1328;SDS011;658;48.820;9.354;2022-08-01T20:50:47;1.63;;;1.53;;
1328;SDS011;658;48.820;9.354;2022-08-01T20:55:07;1.93;;;1.83;;
1328;SDS011;658;48.820;9.354;2022-08-01T20:59:08;1.80;;;1.70;;
1328;SDS011;658;48.820;9.354;2022-08-01T21:03:44;1.60;;;1.50;;
1328;SDS011;658;48.820;9.354;2022-08-01T21:08:01;2.03;;;1.63;;
1328;SDS011;658;48.820;9.354;2022-08-01T21:12:06;1.60;;;1.50;;
1328;SDS011;658;48.820;9.354;2022-08-01T21:16:27;1.47;;;1.37;;
1328;SDS011;658;48.820;9.354;2022-08-01T21:20:32;4.23;;;1.40;;
1328;SDS011;658;48.820;9.354;2022-08-01T21:24:42;1.53;;;1.37;;
1328;SDS011;658;48.820;9.354;2022-08-01T21:28:50;2.90;;;1.30;;
1328;SDS011;658;48.820;9.354;2022-08-01T21:32:52;1.50;;;1.30;;
1328;SDS011;658;48.820;9.354;2022-08-01T21:36:54;1.57;;;1.47;;
1328;SDS011;658;48.820;9.354;2022-08-01T21:40:54;1.57;;;1.10;;
1328;SDS011;658;48.820;9.354;2022-08-01T21:44:57;1.63;;;1.47;;
1328;SDS011;658;48.820;9.354;2022-08-01T21:49:00;1.40;;;1.30;;
1328;SDS011;658;48.820;9.354;2022-08-01T21:53:09;1.23;;;1.13;;
1328;SDS011;658;48.820;9.354;2022-08-01T22:01:47;1.90;;;1.40;;
1328;SDS011;658;48.820;9.354;2022-08-01T22:05:54;1.53;;;1.30;;
1328;SDS011;658;48.820;9.354;2022-08-01T22:09:57;3.13;;;1.00;;
1328;SDS011;658;48.820;9.354;2022-08-01T22:14:00;1.07;;;0.90;;
1328;SDS011;658;48.820;9.354;2022-08-01T22:18:05;2.23;;;1.40;;
1328;SDS011;658;48.820;9.354;2022-08-01T22:22:07;2.10;;;1.20;;
1328;SDS011;658;48.820;9.354;2022-08-01T22:26:08;1.10;;;1.00;;
1328;SDS011;658;48.820;9.354;2022-08-01T22:30:10;1.70;;;1.27;;
1328;SDS011;658;48.820;9.354;2022-08-01T22:34:13;2.40;;;1.23;;
1328;SDS011;658;48.820;9.354;2022-08-01T22:38:17;1.50;;;1.20;;
1328;SDS011;658;48.820;9.354;2022-08-01T22:42:25;0.73;;;0.70;;
1328;SDS011;658;48.820;9.354;2022-08-01T22:50:42;2.50;;;1.10;;
1328;SDS011;658;48.820;9.354;2022-08-01T22:54:49;2.10;;;1.13;;
1328;SDS011;658;48.820;9.354;2022-08-01T22:58:58;1.13;;;1.03;;
1328;SDS011;658;48.820;9.354;2022-08-01T23:03:13;1.10;;;0.97;;
1328;SDS011;658;48.820;9.354;2022-08-01T23:07:21;1.20;;;1.10;;
1328;SDS011;658;48.820;9.354;2022-08-01T23:11:27;1.00;;;0.90;;
1328;SDS011;658;48.820;9.354;2022-08-01T23:15:28;1.20;;;1.10;;
1328;SDS011;658;48.820;9.354;2022-08-01T23:19:30;0.90;;;0.90;;
1328;SDS011;658;48.820;9.354;2022-08-01T23:23:32;1.23;;;1.17;;
1328;SDS011;658;48.820;9.354;2022-08-01T23:27:33;0.90;;;0.90;;
1328;SDS011;658;48.820;9.354;2022-08-01T23:31:36;2.77;;;1.20;;
1328;SDS011;658;48.820;9.354;2022-08-01T23:35:36;1.67;;;1.10;;
1328;SDS011;658;48.820;9.354;2022-08-01T23:39:37;1.33;;;1.10;;
1328;SDS011;658;48.820;9.354;2022-08-01T23:43:38;1.07;;;0.90;;
1328;SDS011;658;48.820;9.354;2022-08-01T23:47:40;0.90;;;0.90;;
1328;SDS011;658;48.820;9.354;2022-08-01T23:51:41;1.27;;;1.10;;
1328;SDS011;658;48.820;9.354;2022-08-01T23:55:41;0.83;;;0.70;;
1328;SDS011;658;48.820;9.354;2022-08-01T23:59:42;0.87;;;0.87;;
